sensor_id;sensor_type;location;lat;lon;timestamp;P1;durP1;ratioP1;P2;durP2;ratioP2
21999;SDS011;11164;48.818;2.322;2023-03-24T00:00:12;4.97;;;1.92;;
21999;SDS011;11164;48.818;2.322;2023-03-24T00:02:41;4.53;;;2.05;;
21999;SDS011;11164;48.818;2.322;2023-03-24T00:05:11;5.43;;;2.22;;
21999;SDS011;11164;48.818;2.322;2023-03-24T00:07:40;5.20;;;2.53;;
21999;SDS011;11164;48.818;2.322;2023-03-24T00:10:23;3.95;;;2.15;;
21999;SDS011;11164;48.818;2.322;2023-03-24T00:12:54;5.10;;;2.17;;
21999;SDS011;11164;48.818;2.322;2023-03-24T00:15:22;4.97;;;2.08;;
21999;SDS011;11164;48.818;2.322;2023-03-24T00:17:49;3.10;;;1.65;;
21999;SDS011;11164;48.818;2.322;2023-03-24T00:20:15;4.65;;;1.98;;
21999;SDS011;11164;48.818;2.322;2023-03-24T00:22:43;4.30;;;1.98;;
21999;SDS011;11164;48.818;2.322;2023-03-24T00:25:12;4.10;;;1.85;;
21999;SDS011;11164;48.818;2.322;2023-03-24T00:27:38;4.75;;;1.90;;
21999;SDS011;11164;48.818;2.322;2023-03-24T00:30:07;3.25;;;1.60;;
21999;SDS011;11164;48.818;2.322;2023-03-24T00:32:35;4.55;;;1.80;;
21999;SDS011;11164;48.818;2.322;2023-03-24T00:35:03;4.30;;;1.80;;
21999;SDS011;11164;48.818;2.322;2023-03-24T00:37:30;3.75;;;2.00;;
21999;SDS011;11164;48.818;2.322;2023-03-24T00:39:56;4.80;;;1.50;;
21999;SDS011;11164;48.818;2.322;2023-03-24T00:42:21;4.43;;;1.83;;
21999;SDS011;11164;48.818;2.322;2023-03-24T00:44:48;3.58;;;1.88;;
21999;SDS011;11164;48.818;2.322;2023-03-24T00:47:14;5.70;;;1.98;;
21999;SDS011;11164;48.818;2.322;2023-03-24T00:49:41;3.78;;;2.08;;
21999;SDS011;11164;48.818;2.322;2023-03-24T00:54:38;3.15;;;1.65;;
21999;SDS011;11164;48.818;2.322;2023-03-24T00:57:05;4.00;;;1.45;;
21999;SDS011;11164;48.818;2.322;2023-03-24T00:59:31;4.30;;;1.77;;
21999;SDS011;11164;48.818;2.322;2023-03-24T01:02:02;3.58;;;1.85;;
21999;SDS011;11164;48.818;2.322;2023-03-24T01:04:27;3.80;;;1.92;;
21999;SDS011;11164;48.818;2.322;2023-03-24T01:06:54;3.50;;;1.80;;
21999;SDS011;11164;48.818;2.322;2023-03-24T01:09:22;4.30;;;2.20;;
21999;SDS011;11164;48.818;2.322;2023-03-24T01:11:48;3.90;;;2.13;;
21999;SDS011;11164;48.818;2.322;2023-03-24T01:14:13;5.40;;;1.83;;
21999;SDS011;11164;48.818;2.322;2023-03-24T01:16:39;4.60;;;1.85;;
21999;SDS011;11164;48.818;2.322;2023-03-24T01:19:06;3.03;;;1.48;;
21999;SDS011;11164;48.818;2.322;2023-03-24T01:21:33;3.65;;;1.40;;
21999;SDS011;11164;48.818;2.322;2023-03-24T01:23:59;3.60;;;1.65;;
21999;SDS011;11164;48.818;2.322;2023-03-24T01:26:26;3.42;;;1.58;;
21999;SDS011;11164;48.818;2.322;2023-03-24T01:28:51;2.60;;;1.15;;
21999;SDS011;11164;48.818;2.322;2023-03-24T01:31:17;3.45;;;1.48;;
21999;SDS011;11164;48.818;2.322;2023-03-24T01:33:42;4.68;;;1.70;;
21999;SDS011;11164;48.818;2.322;2023-03-24T01:36:08;3.92;;;1.20;;
21999;SDS011;11164;48.818;2.322;2023-03-24T01:38:35;5.05;;;1.42;;
21999;SDS011;11164;48.818;2.322;2023-03-24T01:41:00;3.65;;;1.50;;
21999;SDS011;11164;48.818;2.322;2023-03-24T01:43:27;3.55;;;1.60;;
21999;SDS011;11164;48.818;2.322;2023-03-24T01:49:09;4.28;;;1.55;;
21999;SDS011;11164;48.818;2.322;2023-03-24T01:54:19;2.80;;;1.40;;
21999;SDS011;11164;48.818;2.322;2023-03-24T01:57:22;4.68;;;2.05;;
21999;SDS011;11164;48.818;2.322;2023-03-24T01:59:54;3.80;;;1.73;;
21999;SDS011;11164;48.818;2.322;2023-03-24T02:02:21;4.63;;;1.38;;
21999;SDS011;11164;48.818;2.322;2023-03-24T02:04:49;3.60;;;1.42;;
21999;SDS011;11164;48.818;2.322;2023-03-24T02:09:46;5.35;;;1.85;;
21999;SDS011;11164;48.818;2.322;2023-03-24T02:12:12;3.55;;;1.52;;
21999;SDS011;11164;48.818;2.322;2023-03-24T02:14:37;3.47;;;1.50;;
21999;SDS011;11164;48.818;2.322;2023-03-24T02:33:13;5.78;;;2.03;;
21999;SDS011;11164;48.818;2.322;2023-03-24T02:42:01;7.03;;;1.98;;
21999;SDS011;11164;48.818;2.322;2023-03-24T02:47:30;3.30;;;1.48;;
21999;SDS011;11164;48.818;2.322;2023-03-24T02:50:25;5.97;;;1.65;;
21999;SDS011;11164;48.818;2.322;2023-03-24T02:53:06;3.42;;;1.40;;
21999;SDS011;11164;48.818;2.322;2023-03-24T02:55:34;6.60;;;1.77;;
21999;SDS011;11164;48.818;2.322;2023-03-24T02:58:10;4.80;;;1.52;;
21999;SDS011;11164;48.818;2.322;2023-03-24T03:00:51;4.65;;;1.30;;
21999;SDS011;11164;48.818;2.322;2023-03-24T03:06:00;6.13;;;1.75;;
21999;SDS011;11164;48.818;2.322;2023-03-24T03:08:31;5.70;;;1.58;;
21999;SDS011;11164;48.818;2.322;2023-03-24T03:10:58;4.20;;;1.20;;
21999;SDS011;11164;48.818;2.322;2023-03-24T03:13:31;2.95;;;1.00;;
21999;SDS011;11164;48.818;2.322;2023-03-24T03:16:04;5.85;;;1.63;;
21999;SDS011;11164;48.818;2.322;2023-03-24T03:18:41;3.80;;;1.45;;
21999;SDS011;11164;48.818;2.322;2023-03-24T03:21:14;4.82;;;1.50;;
21999;SDS011;11164;48.818;2.322;2023-03-24T03:24:05;6.93;;;1.50;;
21999;SDS011;11164;48.818;2.322;2023-03-24T03:26:35;4.65;;;1.13;;
21999;SDS011;11164;48.818;2.322;2023-03-24T03:29:03;4.63;;;1.20;;
21999;SDS011;11164;48.818;2.322;2023-03-24T03:31:39;4.55;;;1.17;;
21999;SDS011;11164;48.818;2.322;2023-03-24T03:36:53;6.05;;;2.17;;
21999;SDS011;11164;48.818;2.322;2023-03-24T03:39:27;6.53;;;1.17;;
21999;SDS011;11164;48.818;2.322;2023-03-24T03:41:55;6.65;;;1.40;;
21999;SDS011;11164;48.818;2.322;2023-03-24T03:44:21;4.30;;;1.13;;
21999;SDS011;11164;48.818;2.322;2023-03-24T03:46:46;4.95;;;1.33;;
21999;SDS011;11164;48.818;2.322;2023-03-24T03:49:12;7.00;;;1.10;;
21999;SDS011;11164;48.818;2.322;2023-03-24T03:51:37;7.40;;;1.25;;
21999;SDS011;11164;48.818;2.322;2023-03-24T03:54:04;5.22;;;0.98;;
21999;SDS011;11164;48.818;2.322;2023-03-24T03:56:33;7.68;;;1.60;;
21999;SDS011;11164;48.818;2.322;2023-03-24T03:59:01;7.57;;;1.30;;
21999;SDS011;11164;48.818;2.322;2023-03-24T04:01:28;3.90;;;0.88;;
21999;SDS011;11164;48.818;2.322;2023-03-24T04:04:09;3.85;;;0.90;;
21999;SDS011;11164;48.818;2.322;2023-03-24T04:20:23;4.20;;;1.05;;
21999;SDS011;11164;48.818;2.322;2023-03-24T04:33:51;4.95;;;1.15;;
21999;SDS011;11164;48.818;2.322;2023-03-24T04:36:29;8.07;;;1.50;;
21999;SDS011;11164;48.818;2.322;2023-03-24T04:39:07;6.97;;;1.23;;
21999;SDS011;11164;48.818;2.322;2023-03-24T04:41:37;7.38;;;1.20;;
21999;SDS011;11164;48.818;2.322;2023-03-24T04:44:04;7.07;;;1.27;;
21999;SDS011;11164;48.818;2.322;2023-03-24T04:46:29;9.93;;;1.48;;
21999;SDS011;11164;48.818;2.322;2023-03-24T04:48:55;6.43;;;1.25;;
21999;SDS011;11164;48.818;2.322;2023-03-24T04:51:20;8.93;;;1.63;;
21999;SDS011;11164;48.818;2.322;2023-03-24T04:53:46;7.65;;;2.17;;
21999;SDS011;11164;48.818;2.322;2023-03-24T04:56:26;7.70;;;1.23;;
21999;SDS011;11164;48.818;2.322;2023-03-24T04:58:54;7.00;;;1.48;;
21999;SDS011;11164;48.818;2.322;2023-03-24T05:01:20;10.13;;;1.50;;
21999;SDS011;11164;48.818;2.322;2023-03-24T05:03:46;8.63;;;1.50;;
21999;SDS011;11164;48.818;2.322;2023-03-24T05:06:13;9.20;;;1.63;;
21999;SDS011;11164;48.818;2.322;2023-03-24T05:08:39;8.43;;;1.20;;
21999;SDS011;11164;48.818;2.322;2023-03-24T05:11:05;6.93;;;1.20;;
21999;SDS011;11164;48.818;2.322;2023-03-24T05:13:30;6.95;;;1.55;;
21999;SDS011;11164;48.818;2.322;2023-03-24T05:15:56;5.75;;;1.55;;
21999;SDS011;11164;48.818;2.322;2023-03-24T05:18:22;7.00;;;1.30;;
21999;SDS011;11164;48.818;2.322;2023-03-24T05:20:47;8.63;;;1.38;;
21999;SDS011;11164;48.818;2.322;2023-03-24T05:23:13;7.45;;;1.17;;
21999;SDS011;11164;48.818;2.322;2023-03-24T05:25:38;10.82;;;1.55;;
21999;SDS011;11164;48.818;2.322;2023-03-24T05:28:04;10.88;;;1.70;;
21999;SDS011;11164;48.818;2.322;2023-03-24T05:30:29;7.30;;;1.42;;
21999;SDS011;11164;48.818;2.322;2023-03-24T05:32:56;8.13;;;1.27;;
21999;SDS011;11164;48.818;2.322;2023-03-24T05:35:21;10.80;;;1.80;;
21999;SDS011;11164;48.818;2.322;2023-03-24T05:37:48;7.40;;;1.45;;
21999;SDS011;11164;48.818;2.322;2023-03-24T05:40:14;12.00;;;2.05;;
21999;SDS011;11164;48.818;2.322;2023-03-24T05:42:40;7.32;;;1.63;;
21999;SDS011;11164;48.818;2.322;2023-03-24T05:45:05;8.35;;;1.60;;
21999;SDS011;11164;48.818;2.322;2023-03-24T05:47:32;10.55;;;1.40;;
21999;SDS011;11164;48.818;2.322;2023-03-24T05:49:57;7.30;;;1.38;;
21999;SDS011;11164;48.818;2.322;2023-03-24T05:52:22;8.07;;;1.67;;
21999;SDS011;11164;48.818;2.322;2023-03-24T05:54:48;10.00;;;1.60;;
21999;SDS011;11164;48.818;2.322;2023-03-24T05:57:16;10.35;;;1.60;;
21999;SDS011;11164;48.818;2.322;2023-03-24T05:59:42;10.88;;;1.50;;
21999;SDS011;11164;48.818;2.322;2023-03-24T06:02:07;10.27;;;1.70;;
21999;SDS011;11164;48.818;2.322;2023-03-24T06:04:33;8.00;;;1.70;;
21999;SDS011;11164;48.818;2.322;2023-03-24T06:06:58;9.23;;;1.50;;
21999;SDS011;11164;48.818;2.322;2023-03-24T06:09:25;9.05;;;1.60;;
21999;SDS011;11164;48.818;2.322;2023-03-24T06:11:57;11.38;;;1.40;;
21999;SDS011;11164;48.818;2.322;2023-03-24T06:14:23;12.32;;;1.95;;
21999;SDS011;11164;48.818;2.322;2023-03-24T06:16:48;6.85;;;1.70;;
21999;SDS011;11164;48.818;2.322;2023-03-24T06:19:16;8.85;;;1.70;;
21999;SDS011;11164;48.818;2.322;2023-03-24T06:21:46;7.65;;;1.52;;
21999;SDS011;11164;48.818;2.322;2023-03-24T06:24:18;10.73;;;1.90;;
21999;SDS011;11164;48.818;2.322;2023-03-24T06:26:44;11.10;;;2.28;;
21999;SDS011;11164;48.818;2.322;2023-03-24T06:29:10;10.43;;;1.75;;
21999;SDS011;11164;48.818;2.322;2023-03-24T06:31:36;9.13;;;1.90;;
21999;SDS011;11164;48.818;2.322;2023-03-24T06:34:03;8.25;;;1.85;;
21999;SDS011;11164;48.818;2.322;2023-03-24T06:36:29;9.63;;;1.52;;
21999;SDS011;11164;48.818;2.322;2023-03-24T06:38:55;10.23;;;1.98;;
21999;SDS011;11164;48.818;2.322;2023-03-24T06:41:20;10.90;;;1.85;;
21999;SDS011;11164;48.818;2.322;2023-03-24T06:43:46;9.75;;;1.45;;
21999;SDS011;11164;48.818;2.322;2023-03-24T06:46:12;6.22;;;1.42;;
21999;SDS011;11164;48.818;2.322;2023-03-24T06:48:37;12.02;;;2.22;;
21999;SDS011;11164;48.818;2.322;2023-03-24T06:51:03;12.85;;;1.88;;
21999;SDS011;11164;48.818;2.322;2023-03-24T06:53:29;8.25;;;1.50;;
21999;SDS011;11164;48.818;2.322;2023-03-24T06:55:54;8.55;;;2.28;;
21999;SDS011;11164;48.818;2.322;2023-03-24T06:58:20;13.30;;;2.10;;
21999;SDS011;11164;48.818;2.322;2023-03-24T07:00:46;10.88;;;1.80;;
21999;SDS011;11164;48.818;2.322;2023-03-24T07:03:12;12.50;;;1.77;;
21999;SDS011;11164;48.818;2.322;2023-03-24T07:05:40;11.50;;;1.95;;
21999;SDS011;11164;48.818;2.322;2023-03-24T07:08:07;7.55;;;1.48;;
21999;SDS011;11164;48.818;2.322;2023-03-24T07:10:33;10.30;;;1.88;;
21999;SDS011;11164;48.818;2.322;2023-03-24T07:13:00;8.13;;;2.08;;
21999;SDS011;11164;48.818;2.322;2023-03-24T07:15:27;6.30;;;1.30;;
21999;SDS011;11164;48.818;2.322;2023-03-24T07:17:53;8.18;;;1.52;;
21999;SDS011;11164;48.818;2.322;2023-03-24T07:20:18;10.93;;;2.35;;
21999;SDS011;11164;48.818;2.322;2023-03-24T07:22:44;9.73;;;1.83;;
21999;SDS011;11164;48.818;2.322;2023-03-24T07:25:09;9.88;;;1.98;;
21999;SDS011;11164;48.818;2.322;2023-03-24T07:27:38;6.95;;;1.65;;
21999;SDS011;11164;48.818;2.322;2023-03-24T07:30:04;9.93;;;2.08;;
21999;SDS011;11164;48.818;2.322;2023-03-24T07:32:31;8.50;;;1.50;;
21999;SDS011;11164;48.818;2.322;2023-03-24T07:34:58;8.73;;;1.63;;
21999;SDS011;11164;48.818;2.322;2023-03-24T07:37:25;8.32;;;2.40;;
21999;SDS011;11164;48.818;2.322;2023-03-24T07:39:50;13.30;;;2.03;;
21999;SDS011;11164;48.818;2.322;2023-03-24T07:42:16;5.65;;;1.30;;
21999;SDS011;11164;48.818;2.322;2023-03-24T07:44:41;10.68;;;1.92;;
21999;SDS011;11164;48.818;2.322;2023-03-24T07:47:06;9.27;;;1.70;;
21999;SDS011;11164;48.818;2.322;2023-03-24T07:49:32;12.35;;;2.05;;
21999;SDS011;11164;48.818;2.322;2023-03-24T07:51:57;8.18;;;1.90;;
21999;SDS011;11164;48.818;2.322;2023-03-24T07:54:23;15.98;;;2.05;;
21999;SDS011;11164;48.818;2.322;2023-03-24T07:56:48;9.90;;;2.17;;
21999;SDS011;11164;48.818;2.322;2023-03-24T07:59:14;9.65;;;1.90;;
21999;SDS011;11164;48.818;2.322;2023-03-24T08:01:41;9.00;;;1.65;;
21999;SDS011;11164;48.818;2.322;2023-03-24T08:04:08;10.88;;;2.05;;
21999;SDS011;11164;48.818;2.322;2023-03-24T08:06:35;9.38;;;1.92;;
21999;SDS011;11164;48.818;2.322;2023-03-24T08:09:01;8.73;;;1.83;;
21999;SDS011;11164;48.818;2.322;2023-03-24T08:11:26;10.02;;;1.92;;
21999;SDS011;11164;48.818;2.322;2023-03-24T08:13:51;12.20;;;1.67;;
21999;SDS011;11164;48.818;2.322;2023-03-24T08:16:17;10.90;;;1.55;;
21999;SDS011;11164;48.818;2.322;2023-03-24T08:18:42;11.40;;;2.15;;
21999;SDS011;11164;48.818;2.322;2023-03-24T08:21:07;12.07;;;1.98;;
21999;SDS011;11164;48.818;2.322;2023-03-24T08:23:33;10.68;;;1.58;;
21999;SDS011;11164;48.818;2.322;2023-03-24T08:26:00;13.63;;;2.10;;
21999;SDS011;11164;48.818;2.322;2023-03-24T08:28:26;8.65;;;1.83;;
21999;SDS011;11164;48.818;2.322;2023-03-24T08:30:51;8.57;;;1.67;;
21999;SDS011;11164;48.818;2.322;2023-03-24T08:33:17;7.65;;;1.77;;
21999;SDS011;11164;48.818;2.322;2023-03-24T08:35:42;11.02;;;1.75;;
21999;SDS011;11164;48.818;2.322;2023-03-24T08:38:10;14.27;;;2.10;;
21999;SDS011;11164;48.818;2.322;2023-03-24T08:40:37;10.32;;;1.67;;
21999;SDS011;11164;48.818;2.322;2023-03-24T08:43:04;11.25;;;1.98;;
21999;SDS011;11164;48.818;2.322;2023-03-24T08:45:35;9.70;;;2.00;;
21999;SDS011;11164;48.818;2.322;2023-03-24T08:48:01;13.00;;;2.50;;
21999;SDS011;11164;48.818;2.322;2023-03-24T08:50:29;10.63;;;2.00;;
21999;SDS011;11164;48.818;2.322;2023-03-24T08:52:58;11.68;;;1.98;;
21999;SDS011;11164;48.818;2.322;2023-03-24T08:55:24;13.77;;;1.85;;
21999;SDS011;11164;48.818;2.322;2023-03-24T08:57:49;15.30;;;2.53;;
21999;SDS011;11164;48.818;2.322;2023-03-24T09:00:15;12.20;;;1.80;;
21999;SDS011;11164;48.818;2.322;2023-03-24T09:02:43;7.68;;;1.83;;
21999;SDS011;11164;48.818;2.322;2023-03-24T09:05:13;15.27;;;2.20;;
21999;SDS011;11164;48.818;2.322;2023-03-24T09:07:39;6.05;;;1.27;;
21999;SDS011;11164;48.818;2.322;2023-03-24T09:10:05;11.57;;;2.40;;
21999;SDS011;11164;48.818;2.322;2023-03-24T09:12:32;5.90;;;1.42;;
21999;SDS011;11164;48.818;2.322;2023-03-24T09:14:58;10.95;;;2.20;;
21999;SDS011;11164;48.818;2.322;2023-03-24T09:17:24;9.35;;;1.65;;
21999;SDS011;11164;48.818;2.322;2023-03-24T09:19:49;10.20;;;2.20;;
21999;SDS011;11164;48.818;2.322;2023-03-24T09:22:15;8.27;;;1.80;;
21999;SDS011;11164;48.818;2.322;2023-03-24T09:24:40;10.07;;;1.90;;
21999;SDS011;11164;48.818;2.322;2023-03-24T09:27:06;10.27;;;2.13;;
21999;SDS011;11164;48.818;2.322;2023-03-24T09:29:31;8.57;;;1.63;;
21999;SDS011;11164;48.818;2.322;2023-03-24T09:31:57;11.25;;;1.88;;
21999;SDS011;11164;48.818;2.322;2023-03-24T09:34:23;7.85;;;1.40;;
21999;SDS011;11164;48.818;2.322;2023-03-24T09:36:49;10.48;;;1.65;;
21999;SDS011;11164;48.818;2.322;2023-03-24T09:39:15;8.65;;;1.95;;
21999;SDS011;11164;48.818;2.322;2023-03-24T09:41:41;9.85;;;1.88;;
21999;SDS011;11164;48.818;2.322;2023-03-24T09:47:05;8.85;;;1.95;;
21999;SDS011;11164;48.818;2.322;2023-03-24T09:49:45;11.73;;;2.20;;
21999;SDS011;11164;48.818;2.322;2023-03-24T09:52:13;10.00;;;2.10;;
21999;SDS011;11164;48.818;2.322;2023-03-24T09:54:48;13.68;;;1.88;;
21999;SDS011;11164;48.818;2.322;2023-03-24T09:57:22;11.10;;;2.25;;
21999;SDS011;11164;48.818;2.322;2023-03-24T09:59:51;10.70;;;1.95;;
21999;SDS011;11164;48.818;2.322;2023-03-24T10:02:20;9.57;;;2.17;;
21999;SDS011;11164;48.818;2.322;2023-03-24T10:04:46;9.23;;;2.25;;
21999;SDS011;11164;48.818;2.322;2023-03-24T10:09:45;15.30;;;2.25;;
21999;SDS011;11164;48.818;2.322;2023-03-24T10:25:05;14.52;;;2.25;;
21999;SDS011;11164;48.818;2.322;2023-03-24T10:30:33;12.07;;;2.28;;
21999;SDS011;11164;48.818;2.322;2023-03-24T10:33:03;16.23;;;1.98;;
21999;SDS011;11164;48.818;2.322;2023-03-24T10:37:54;13.17;;;2.33;;
21999;SDS011;11164;48.818;2.322;2023-03-24T10:40:24;9.07;;;2.08;;
21999;SDS011;11164;48.818;2.322;2023-03-24T10:42:52;8.30;;;1.77;;
21999;SDS011;11164;48.818;2.322;2023-03-24T10:48:14;8.45;;;1.80;;
21999;SDS011;11164;48.818;2.322;2023-03-24T10:51:06;5.90;;;1.27;;
21999;SDS011;11164;48.818;2.322;2023-03-24T10:53:37;11.88;;;2.10;;
21999;SDS011;11164;48.818;2.322;2023-03-24T10:56:03;7.18;;;1.70;;
21999;SDS011;11164;48.818;2.322;2023-03-24T10:58:40;6.78;;;1.70;;
21999;SDS011;11164;48.818;2.322;2023-03-24T11:01:23;9.90;;;1.90;;
21999;SDS011;11164;48.818;2.322;2023-03-24T11:03:55;12.95;;;1.77;;
21999;SDS011;11164;48.818;2.322;2023-03-24T11:06:29;9.00;;;2.17;;
21999;SDS011;11164;48.818;2.322;2023-03-24T11:11:43;13.32;;;1.95;;
21999;SDS011;11164;48.818;2.322;2023-03-24T11:14:20;9.75;;;2.03;;
21999;SDS011;11164;48.818;2.322;2023-03-24T11:16:51;7.63;;;1.30;;
21999;SDS011;11164;48.818;2.322;2023-03-24T11:19:19;5.70;;;1.15;;
21999;SDS011;11164;48.818;2.322;2023-03-24T11:21:49;10.38;;;1.83;;
21999;SDS011;11164;48.818;2.322;2023-03-24T11:24:19;8.77;;;1.67;;
21999;SDS011;11164;48.818;2.322;2023-03-24T11:27:05;11.70;;;2.00;;
21999;SDS011;11164;48.818;2.322;2023-03-24T11:29:36;9.23;;;1.88;;
21999;SDS011;11164;48.818;2.322;2023-03-24T11:32:09;8.23;;;1.77;;
21999;SDS011;11164;48.818;2.322;2023-03-24T11:37:26;7.75;;;2.00;;
21999;SDS011;11164;48.818;2.322;2023-03-24T11:42:59;6.35;;;1.15;;
21999;SDS011;11164;48.818;2.322;2023-03-24T11:47:58;9.63;;;2.17;;
21999;SDS011;11164;48.818;2.322;2023-03-24T11:50:29;9.00;;;1.60;;
21999;SDS011;11164;48.818;2.322;2023-03-24T11:53:06;8.13;;;1.67;;
21999;SDS011;11164;48.818;2.322;2023-03-24T11:55:36;8.63;;;1.30;;
21999;SDS011;11164;48.818;2.322;2023-03-24T12:01:38;7.57;;;1.80;;
21999;SDS011;11164;48.818;2.322;2023-03-24T12:11:49;4.68;;;1.08;;
21999;SDS011;11164;48.818;2.322;2023-03-24T12:14:18;6.78;;;1.52;;
21999;SDS011;11164;48.818;2.322;2023-03-24T12:17:07;4.78;;;0.70;;
21999;SDS011;11164;48.818;2.322;2023-03-24T12:25:07;2.60;;;0.57;;
21999;SDS011;11164;48.818;2.322;2023-03-24T12:33:18;3.00;;;1.00;;
21999;SDS011;11164;48.818;2.322;2023-03-24T12:38:45;5.70;;;1.40;;
21999;SDS011;11164;48.818;2.322;2023-03-24T12:57:16;5.97;;;1.53;;
21999;SDS011;11164;48.818;2.322;2023-03-24T12:59:44;9.00;;;1.60;;
21999;SDS011;11164;48.818;2.322;2023-03-24T13:02:28;9.60;;;1.77;;
21999;SDS011;11164;48.818;2.322;2023-03-24T13:05:15;6.60;;;1.90;;
21999;SDS011;11164;48.818;2.322;2023-03-24T13:07:45;8.90;;;1.80;;
21999;SDS011;11164;48.818;2.322;2023-03-24T13:10:21;10.82;;;1.92;;
21999;SDS011;11164;48.818;2.322;2023-03-24T13:15:32;6.03;;;1.25;;
21999;SDS011;11164;48.818;2.322;2023-03-24T13:20:51;8.20;;;1.20;;
21999;SDS011;11164;48.818;2.322;2023-03-24T13:34:33;4.25;;;1.10;;
21999;SDS011;11164;48.818;2.322;2023-03-24T13:37:14;7.60;;;1.48;;
21999;SDS011;11164;48.818;2.322;2023-03-24T13:39:46;10.13;;;1.83;;
21999;SDS011;11164;48.818;2.322;2023-03-24T13:42:35;8.52;;;1.27;;
21999;SDS011;11164;48.818;2.322;2023-03-24T13:45:17;6.28;;;1.30;;
21999;SDS011;11164;48.818;2.322;2023-03-24T13:51:17;9.65;;;1.73;;
21999;SDS011;11164;48.818;2.322;2023-03-24T13:56:46;8.77;;;1.75;;
21999;SDS011;11164;48.818;2.322;2023-03-24T14:09:58;6.35;;;1.20;;
21999;SDS011;11164;48.818;2.322;2023-03-24T14:12:25;9.27;;;1.35;;
21999;SDS011;11164;48.818;2.322;2023-03-24T14:15:14;5.85;;;1.30;;
21999;SDS011;11164;48.818;2.322;2023-03-24T14:17:44;5.13;;;0.90;;
21999;SDS011;11164;48.818;2.322;2023-03-24T14:20:12;4.90;;;0.93;;
21999;SDS011;11164;48.818;2.322;2023-03-24T14:22:49;5.57;;;1.10;;
21999;SDS011;11164;48.818;2.322;2023-03-24T14:27:41;7.05;;;1.38;;
21999;SDS011;11164;48.818;2.322;2023-03-24T14:33:20;6.28;;;1.20;;
21999;SDS011;11164;48.818;2.322;2023-03-24T14:35:26;8.13;;;1.88;;
21999;SDS011;11164;48.818;2.322;2023-03-24T14:37:58;6.30;;;1.40;;
21999;SDS011;11164;48.818;2.322;2023-03-24T14:40:36;6.95;;;1.10;;
21999;SDS011;11164;48.818;2.322;2023-03-24T14:45:57;7.15;;;1.23;;
21999;SDS011;11164;48.818;2.322;2023-03-24T14:48:41;3.92;;;0.90;;
21999;SDS011;11164;48.818;2.322;2023-03-24T14:51:30;5.15;;;1.10;;
21999;SDS011;11164;48.818;2.322;2023-03-24T14:54:03;4.68;;;0.90;;
21999;SDS011;11164;48.818;2.322;2023-03-24T14:56:35;7.72;;;1.38;;
21999;SDS011;11164;48.818;2.322;2023-03-24T14:59:07;5.63;;;0.88;;
21999;SDS011;11164;48.818;2.322;2023-03-24T15:01:39;6.72;;;1.25;;
21999;SDS011;11164;48.818;2.322;2023-03-24T15:04:09;6.43;;;1.00;;
21999;SDS011;11164;48.818;2.322;2023-03-24T15:06:42;6.13;;;1.20;;
21999;SDS011;11164;48.818;2.322;2023-03-24T15:09:08;6.57;;;1.08;;
21999;SDS011;11164;48.818;2.322;2023-03-24T15:11:36;7.85;;;1.20;;
21999;SDS011;11164;48.818;2.322;2023-03-24T15:14:04;5.35;;;0.70;;
21999;SDS011;11164;48.818;2.322;2023-03-24T15:16:34;5.85;;;0.98;;
21999;SDS011;11164;48.818;2.322;2023-03-24T15:21:35;5.03;;;1.13;;
21999;SDS011;11164;48.818;2.322;2023-03-24T15:24:25;7.28;;;1.30;;
21999;SDS011;11164;48.818;2.322;2023-03-24T15:29:30;4.18;;;0.75;;
21999;SDS011;11164;48.818;2.322;2023-03-24T15:31:56;3.22;;;0.73;;
21999;SDS011;11164;48.818;2.322;2023-03-24T15:34:55;3.33;;;0.63;;
21999;SDS011;11164;48.818;2.322;2023-03-24T15:37:30;1.88;;;0.50;;
21999;SDS011;11164;48.818;2.322;2023-03-24T15:39:58;2.45;;;0.40;;
21999;SDS011;11164;48.818;2.322;2023-03-24T15:42:24;3.88;;;0.60;;
21999;SDS011;11164;48.818;2.322;2023-03-24T15:44:50;3.72;;;0.63;;
21999;SDS011;11164;48.818;2.322;2023-03-24T15:47:21;4.55;;;0.70;;
21999;SDS011;11164;48.818;2.322;2023-03-24T15:49:59;3.28;;;0.57;;
21999;SDS011;11164;48.818;2.322;2023-03-24T15:52:28;4.40;;;1.00;;
21999;SDS011;11164;48.818;2.322;2023-03-24T15:57:39;4.23;;;0.83;;
21999;SDS011;11164;48.818;2.322;2023-03-24T16:00:07;5.55;;;1.20;;
21999;SDS011;11164;48.818;2.322;2023-03-24T16:02:53;1.27;;;0.30;;
21999;SDS011;11164;48.818;2.322;2023-03-24T16:10:30;5.15;;;0.90;;
21999;SDS011;11164;48.818;2.322;2023-03-24T16:13:14;6.65;;;1.05;;
21999;SDS011;11164;48.818;2.322;2023-03-24T16:15:58;3.95;;;0.77;;
21999;SDS011;11164;48.818;2.322;2023-03-24T16:18:35;7.97;;;1.40;;
21999;SDS011;11164;48.818;2.322;2023-03-24T16:21:08;4.70;;;1.00;;
21999;SDS011;11164;48.818;2.322;2023-03-24T16:23:44;6.40;;;0.85;;
21999;SDS011;11164;48.818;2.322;2023-03-24T16:28:45;6.05;;;1.13;;
21999;SDS011;11164;48.818;2.322;2023-03-24T16:31:33;5.35;;;1.30;;
21999;SDS011;11164;48.818;2.322;2023-03-24T16:33:59;6.65;;;1.38;;
21999;SDS011;11164;48.818;2.322;2023-03-24T16:36:25;6.63;;;1.40;;
21999;SDS011;11164;48.818;2.322;2023-03-24T16:38:52;8.07;;;1.40;;
21999;SDS011;11164;48.818;2.322;2023-03-24T16:41:18;5.82;;;1.00;;
21999;SDS011;11164;48.818;2.322;2023-03-24T16:43:44;5.43;;;0.90;;
21999;SDS011;11164;48.818;2.322;2023-03-24T16:46:13;7.68;;;1.27;;
21999;SDS011;11164;48.818;2.322;2023-03-24T16:48:41;3.17;;;0.68;;
21999;SDS011;11164;48.818;2.322;2023-03-24T16:51:13;3.70;;;1.00;;
21999;SDS011;11164;48.818;2.322;2023-03-24T16:53:40;5.53;;;1.10;;
21999;SDS011;11164;48.818;2.322;2023-03-24T16:56:07;4.97;;;1.00;;
21999;SDS011;11164;48.818;2.322;2023-03-24T16:58:33;4.90;;;1.10;;
21999;SDS011;11164;48.818;2.322;2023-03-24T17:00:58;6.00;;;0.93;;
21999;SDS011;11164;48.818;2.322;2023-03-24T17:03:25;8.32;;;1.42;;
21999;SDS011;11164;48.818;2.322;2023-03-24T17:05:53;7.30;;;1.27;;
21999;SDS011;11164;48.818;2.322;2023-03-24T17:08:20;5.82;;;1.40;;
21999;SDS011;11164;48.818;2.322;2023-03-24T17:10:46;3.35;;;0.90;;
21999;SDS011;11164;48.818;2.322;2023-03-24T17:13:21;6.97;;;1.20;;
21999;SDS011;11164;48.818;2.322;2023-03-24T17:15:48;4.38;;;1.70;;
21999;SDS011;11164;48.818;2.322;2023-03-24T17:18:15;6.07;;;1.13;;
21999;SDS011;11164;48.818;2.322;2023-03-24T17:20:41;5.53;;;1.23;;
21999;SDS011;11164;48.818;2.322;2023-03-24T17:23:07;6.45;;;0.98;;
21999;SDS011;11164;48.818;2.322;2023-03-24T17:25:34;4.35;;;0.88;;
21999;SDS011;11164;48.818;2.322;2023-03-24T17:27:59;3.80;;;0.68;;
21999;SDS011;11164;48.818;2.322;2023-03-24T17:30:25;1.38;;;0.40;;
21999;SDS011;11164;48.818;2.322;2023-03-24T17:32:52;3.97;;;0.80;;
21999;SDS011;11164;48.818;2.322;2023-03-24T17:35:19;2.97;;;0.50;;
21999;SDS011;11164;48.818;2.322;2023-03-24T17:37:46;3.28;;;0.52;;
21999;SDS011;11164;48.818;2.322;2023-03-24T17:40:12;2.08;;;0.60;;
21999;SDS011;11164;48.818;2.322;2023-03-24T17:42:40;2.25;;;0.75;;
21999;SDS011;11164;48.818;2.322;2023-03-24T17:45:08;2.65;;;0.52;;
21999;SDS011;11164;48.818;2.322;2023-03-24T17:47:36;2.92;;;0.75;;
21999;SDS011;11164;48.818;2.322;2023-03-24T17:50:01;4.55;;;0.77;;
21999;SDS011;11164;48.818;2.322;2023-03-24T17:52:33;2.03;;;0.65;;
21999;SDS011;11164;48.818;2.322;2023-03-24T17:57:33;4.57;;;0.75;;
21999;SDS011;11164;48.818;2.322;2023-03-24T17:59:58;3.60;;;0.60;;
21999;SDS011;11164;48.818;2.322;2023-03-24T18:02:24;4.65;;;0.95;;
21999;SDS011;11164;48.818;2.322;2023-03-24T18:04:50;1.20;;;0.43;;
21999;SDS011;11164;48.818;2.322;2023-03-24T18:07:15;3.33;;;1.00;;
21999;SDS011;11164;48.818;2.322;2023-03-24T18:09:40;3.92;;;0.60;;
21999;SDS011;11164;48.818;2.322;2023-03-24T18:12:05;7.32;;;1.17;;
21999;SDS011;11164;48.818;2.322;2023-03-24T18:14:31;3.90;;;0.70;;
21999;SDS011;11164;48.818;2.322;2023-03-24T18:16:57;5.00;;;1.27;;
21999;SDS011;11164;48.818;2.322;2023-03-24T18:19:22;4.35;;;1.20;;
21999;SDS011;11164;48.818;2.322;2023-03-24T18:21:48;4.55;;;1.00;;